createdAt,value
2017-08-03T00:00:26.665Z,34.5
2017-08-03T00:01:07.733Z,33.0
2017-08-03T00:01:48.799Z,31.3
2017-08-03T00:02:29.961Z,32.2
2017-08-03T00:03:10.931Z,33.1
2017-08-03T00:03:51.990Z,32.3
2017-08-03T00:04:33.264Z,31.9
2017-08-03T00:05:14.521Z,32.0
2017-08-03T00:05:55.593Z,33.3
2017-08-03T00:06:36.758Z,32.6
2017-08-03T00:07:18.042Z,32.3
2017-08-03T00:07:59.111Z,32.6
2017-08-03T00:08:40.178Z,33.1
2017-08-03T00:09:21.148Z,32.2
2017-08-03T00:10:02.307Z,32.0
2017-08-03T00:10:43.376Z,33.3
2017-08-03T00:11:24.529Z,31.7
2017-08-03T00:12:05.898Z,33.7
2017-08-03T00:12:46.974Z,34.2
2017-08-03T00:13:28.035Z,33.6
2017-08-03T00:14:09.105Z,32.4
2017-08-03T00:14:50.263Z,31.8
2017-08-03T00:15:31.228Z,34.0
2017-08-03T00:16:12.297Z,32.4
2017-08-03T00:16:53.371Z,31.9
2017-08-03T00:17:34.431Z,31.7
2017-08-03T00:18:15.606Z,31.2
2017-08-03T00:18:56.771Z,31.8
2017-08-03T00:19:37.841Z,32.5
2017-08-03T00:20:18.999Z,33.2
2017-08-03T00:21:00.073Z,32.3
2017-08-03T00:21:41.149Z,33.0
2017-08-03T00:22:22.319Z,32.6
2017-08-03T00:23:03.375Z,33.1
2017-08-03T00:23:44.440Z,34.2
2017-08-03T00:24:25.409Z,32.1
2017-08-03T00:25:06.580Z,33.9
2017-08-03T00:25:47.549Z,32.4
2017-08-03T00:26:28.718Z,31.9
2017-08-03T00:27:10.000Z,32.5
2017-08-03T00:27:50.971Z,32.5
2017-08-03T00:28:31.944Z,32.8
2017-08-03T00:29:13.013Z,33.0
2017-08-03T00:29:54.176Z,34.6
2017-08-03T00:30:35.242Z,34.1
2017-08-03T00:31:16.211Z,34.5
2017-08-03T00:31:57.384Z,34.9
2017-08-03T00:32:38.553Z,34.1
2017-08-03T00:33:19.419Z,34.8
2017-08-03T00:34:00.488Z,34.6
2017-08-03T00:34:41.562Z,33.1
2017-08-03T00:35:22.534Z,32.2
2017-08-03T00:36:03.505Z,31.6
2017-08-03T00:36:44.568Z,31.3
2017-08-03T00:37:25.634Z,33.4
2017-08-03T00:38:06.805Z,34.6
2017-08-03T00:38:47.767Z,35.0
2017-08-03T00:39:28.742Z,35.8
2017-08-03T00:40:09.713Z,35.9
2017-08-03T00:40:50.781Z,37.4
2017-08-03T00:41:31.655Z,36.7
2017-08-03T00:42:12.722Z,38.7
2017-08-03T00:42:53.901Z,39.9
2017-08-03T00:43:34.958Z,36.8
2017-08-03T00:44:16.033Z,37.6
2017-08-03T00:44:56.995Z,38.6
2017-08-03T00:45:38.067Z,38.3
2017-08-03T00:46:19.235Z,39.2
2017-08-03T00:47:00.303Z,38.7
2017-08-03T00:47:41.275Z,38.7
2017-08-03T00:48:22.340Z,38.8
2017-08-03T00:49:03.315Z,39.2
2017-08-03T00:49:44.277Z,38.2
2017-08-03T00:50:25.346Z,37.9
2017-08-03T00:51:06.519Z,38.3
2017-08-03T00:51:47.493Z,40.0
2017-08-03T00:52:28.561Z,40.2
2017-08-03T00:53:09.634Z,40.3
2017-08-03T00:53:50.703Z,39.9
2017-08-03T00:54:31.772Z,40.5
2017-08-03T00:55:12.841Z,42.0
2017-08-03T00:55:53.815Z,43.7
2017-08-03T00:56:34.777Z,43.6
2017-08-03T00:57:15.842Z,41.3
2017-08-03T00:57:57.006Z,44.2
2017-08-03T00:58:38.083Z,43.7
2017-08-03T00:59:19.047Z,43.7
2017-08-03T01:00:00.010Z,46.6
2017-08-03T01:00:41.592Z,44.4
2017-08-03T01:01:22.654Z,45.1
2017-08-03T01:02:03.636Z,45.2
2017-08-03T01:02:44.708Z,48.4
2017-08-03T01:03:25.781Z,47.6
2017-08-03T01:04:06.850Z,43.7
2017-08-03T01:04:47.921Z,43.7
2017-08-03T01:05:28.983Z,46.2
2017-08-03T01:06:10.158Z,47.4
2017-08-03T01:06:51.425Z,43.5
2017-08-03T01:07:32.394Z,42.7
2017-08-03T01:08:13.369Z,42.6
2017-08-03T01:08:54.529Z,43.1
2017-08-03T01:09:35.701Z,44.9
2017-08-03T01:10:16.973Z,43.3
2017-08-03T01:10:57.941Z,44.4
2017-08-03T01:11:38.912Z,45.6
2017-08-03T01:12:19.980Z,45.2
2017-08-03T01:13:00.958Z,47.3
2017-08-03T01:13:42.026Z,47.5
2017-08-03T01:14:23.095Z,45.8
2017-08-03T01:15:04.170Z,46.3
2017-08-03T01:15:45.140Z,44.3
2017-08-03T01:16:26.107Z,46.8
2017-08-03T01:17:07.384Z,47.0
2017-08-03T01:17:48.357Z,45.9
2017-08-03T01:18:29.430Z,45.8
2017-08-03T01:19:10.400Z,46.8
2017-08-03T01:19:51.368Z,46.5
2017-08-03T01:20:32.436Z,45.6
2017-08-03T01:21:13.612Z,45.2
2017-08-03T01:21:54.581Z,46.1
2017-08-03T01:22:35.554Z,47.5
2017-08-03T01:23:16.630Z,48.2
2017-08-03T01:23:57.697Z,47.7
2017-08-03T01:24:38.771Z,46.8
2017-08-03T01:25:19.843Z,47.5
2017-08-03T01:26:00.915Z,46.7
2017-08-03T01:26:41.886Z,46.8
2017-08-03T01:27:22.860Z,48.3
2017-08-03T01:28:03.928Z,50.4
2017-08-03T01:28:44.999Z,49.1
2017-08-03T01:29:25.971Z,50.1
2017-08-03T01:30:07.038Z,51.1
2017-08-03T01:30:48.131Z,49.0
2017-08-03T01:31:29.103Z,49.8
2017-08-03T01:32:10.171Z,50.9
2017-08-03T01:32:51.161Z,50.7
2017-08-03T01:33:32.225Z,52.2
2017-08-03T01:34:13.395Z,54.6
2017-08-03T01:34:54.471Z,53.8
2017-08-03T01:35:35.644Z,52.3
2017-08-03T01:36:16.718Z,51.1
2017-08-03T01:36:57.793Z,54.9
2017-08-03T01:37:38.969Z,54.7
2017-08-03T01:38:20.250Z,56.0
2017-08-03T01:39:01.422Z,56.0
2017-08-03T01:39:42.387Z,55.5
2017-08-03T01:40:23.467Z,54.1
2017-08-03T01:41:04.440Z,53.2
2017-08-03T01:41:45.415Z,56.1
2017-08-03T01:42:26.495Z,54.5
2017-08-03T01:43:07.467Z,55.0
2017-08-03T01:43:48.550Z,57.0
2017-08-03T01:44:29.616Z,55.3
2017-08-03T01:45:10.585Z,54.8
2017-08-03T01:45:51.558Z,57.5
2017-08-03T01:46:32.430Z,56.4
2017-08-03T01:47:13.817Z,56.6
2017-08-03T01:47:54.981Z,59.7
2017-08-03T01:48:36.063Z,58.7
2017-08-03T01:49:17.134Z,56.0
2017-08-03T01:49:58.315Z,56.5
2017-08-03T01:50:39.381Z,57.6
2017-08-03T01:51:20.357Z,55.7
2017-08-03T01:52:01.329Z,56.7
2017-08-03T01:52:42.504Z,60.2
2017-08-03T01:53:23.480Z,59.0
2017-08-03T01:54:04.451Z,58.5
2017-08-03T01:54:45.526Z,60.0
2017-08-03T01:55:26.591Z,58.4
2017-08-03T01:56:07.772Z,58.1
2017-08-03T01:56:48.940Z,59.4
2017-08-03T01:57:29.910Z,60.7
2017-08-03T01:58:10.882Z,60.1
2017-08-03T01:58:51.954Z,61.4
2017-08-03T01:59:32.935Z,62.9
2017-08-03T02:00:14.002Z,63.8
2017-08-03T02:00:55.181Z,64.3
2017-08-03T02:01:36.346Z,63.2
2017-08-03T02:02:17.317Z,64.3
2017-08-03T02:02:58.301Z,67.1
2017-08-03T02:03:39.469Z,66.3
2017-08-03T02:04:20.449Z,64.5
2017-08-03T02:05:01.522Z,64.1
2017-08-03T02:05:42.596Z,62.8
2017-08-03T02:06:23.766Z,62.0
2017-08-03T02:07:04.942Z,63.3
2017-08-03T02:07:45.917Z,61.3
2017-08-03T02:08:26.990Z,59.7
2017-08-03T02:09:07.959Z,57.9
2017-08-03T02:09:48.930Z,59.8
2017-08-03T02:10:29.905Z,62.4
2017-08-03T02:11:10.878Z,63.2
2017-08-03T02:11:51.954Z,61.2
2017-08-03T02:12:33.034Z,59.4
2017-08-03T02:13:14.106Z,58.0
2017-08-03T02:13:55.185Z,59.6
2017-08-03T02:14:36.255Z,60.0
2017-08-03T02:15:17.328Z,59.2
2017-08-03T02:15:58.294Z,58.8
2017-08-03T02:16:39.567Z,61.5
2017-08-03T02:17:20.543Z,64.7
2017-08-03T02:18:01.714Z,65.7
2017-08-03T02:18:42.788Z,61.8
2017-08-03T02:19:23.858Z,63.3
2017-08-03T02:20:05.031Z,63.4
2017-08-03T02:20:46.006Z,58.1
2017-08-03T02:21:27.078Z,56.2
2017-08-03T02:22:08.053Z,60.1
2017-08-03T02:22:49.533Z,62.7
2017-08-03T02:23:30.513Z,60.0
2017-08-03T02:24:11.677Z,61.1
2017-08-03T02:24:52.756Z,61.6
2017-08-03T02:25:33.930Z,63.2
2017-08-03T02:26:14.910Z,60.7
2017-08-03T02:26:55.890Z,63.9
2017-08-03T02:27:36.961Z,63.7
2017-08-03T02:28:17.844Z,63.4
2017-08-03T02:28:58.922Z,59.8
2017-08-03T02:29:39.905Z,61.6
2017-08-03T02:30:20.885Z,61.6
2017-08-03T02:31:02.171Z,60.2
2017-08-03T02:31:43.352Z,58.8
2017-08-03T02:32:24.434Z,59.1
2017-08-03T02:33:05.510Z,59.0
2017-08-03T02:33:46.589Z,58.9
2017-08-03T02:34:27.671Z,62.1
2017-08-03T02:35:08.644Z,61.2
2017-08-03T02:35:49.725Z,62.8
2017-08-03T02:36:30.802Z,58.4
2017-08-03T02:37:11.884Z,60.7
2017-08-03T02:37:52.858Z,57.8
2017-08-03T02:38:34.038Z,59.9
2017-08-03T02:39:15.218Z,55.1
2017-08-03T02:39:56.299Z,53.1
2017-08-03T02:40:37.178Z,53.0
2017-08-03T02:41:18.167Z,57.2
2017-08-03T02:41:59.443Z,56.3
2017-08-03T02:42:40.538Z,58.0
2017-08-03T02:43:21.508Z,57.7
2017-08-03T02:44:02.589Z,58.0
2017-08-03T02:44:43.569Z,57.7
2017-08-03T02:45:24.778Z,58.7
2017-08-03T02:46:05.954Z,55.1
2017-08-03T02:46:46.933Z,55.6
2017-08-03T02:47:28.014Z,56.8
2017-08-03T02:48:08.991Z,59.4
2017-08-03T02:48:50.064Z,57.9
2017-08-03T02:49:31.044Z,57.1
2017-08-03T02:50:12.320Z,56.1
2017-08-03T02:50:53.300Z,52.2
2017-08-03T02:51:34.273Z,50.1
2017-08-03T02:52:15.250Z,51.8
2017-08-03T02:52:56.224Z,53.9
2017-08-03T02:53:37.223Z,51.3
2017-08-03T02:54:18.304Z,51.0
2017-08-03T02:54:59.297Z,51.6
2017-08-03T02:55:40.380Z,51.2
2017-08-03T02:56:21.464Z,46.1
2017-08-03T02:57:02.438Z,48.6
2017-08-03T02:57:43.523Z,49.2
2017-08-03T02:58:24.698Z,51.0
2017-08-03T02:59:05.675Z,51.4
2017-08-03T02:59:46.750Z,48.6
2017-08-03T03:00:27.823Z,46.0
2017-08-03T03:01:08.911Z,48.6
2017-08-03T03:01:49.993Z,49.7
2017-08-03T03:02:31.072Z,49.0
2017-08-03T03:03:12.147Z,47.9
2017-08-03T03:03:53.222Z,47.9
2017-08-03T03:04:34.206Z,42.5
2017-08-03T03:05:15.187Z,44.8
2017-08-03T03:05:56.164Z,48.1
2017-08-03T03:06:37.346Z,48.1
2017-08-03T03:07:18.219Z,52.2
2017-08-03T03:07:59.204Z,50.0
2017-08-03T03:08:40.180Z,44.7
2017-08-03T03:09:21.166Z,45.4
2017-08-03T03:10:02.437Z,45.5
2017-08-03T03:10:43.515Z,45.6
2017-08-03T03:11:24.592Z,43.8
2017-08-03T03:12:05.671Z,43.2
2017-08-03T03:12:46.757Z,44.3
2017-08-03T03:13:27.832Z,43.8
2017-08-03T03:14:08.912Z,40.7
2017-08-03T03:14:49.886Z,42.1
2017-08-03T03:15:30.867Z,42.9
2017-08-03T03:16:11.847Z,43.4
2017-08-03T03:16:52.823Z,42.8
2017-08-03T03:17:33.793Z,42.2
2017-08-03T03:18:14.772Z,41.1
2017-08-03T03:18:55.854Z,41.3
2017-08-03T03:19:36.826Z,39.8
2017-08-03T03:20:17.805Z,39.4
2017-08-03T03:20:58.789Z,37.3
2017-08-03T03:21:39.761Z,37.3
2017-08-03T03:22:20.933Z,37.1
2017-08-03T03:23:01.911Z,37.7
2017-08-03T03:23:43.179Z,36.2
2017-08-03T03:24:24.260Z,36.5
2017-08-03T03:25:05.233Z,37.8
2017-08-03T03:25:46.613Z,36.0
2017-08-03T03:26:27.596Z,36.6
2017-08-03T03:27:08.775Z,36.1
2017-08-03T03:27:49.748Z,34.7
2017-08-03T03:28:30.824Z,34.5
2017-08-03T03:29:12.005Z,35.7
2017-08-03T03:29:52.979Z,36.7
2017-08-03T03:30:33.966Z,36.6
2017-08-03T03:31:15.046Z,35.3
2017-08-03T03:31:56.026Z,33.0
2017-08-03T03:32:37.095Z,32.4
2017-08-03T03:33:18.264Z,33.4
2017-08-03T03:33:59.246Z,34.0
2017-08-03T03:34:40.420Z,33.8
2017-08-03T03:35:21.612Z,32.1
2017-08-03T03:36:02.686Z,31.8
2017-08-03T03:36:43.668Z,32.0
2017-08-03T03:37:24.746Z,31.3
2017-08-03T03:38:05.721Z,32.1
2017-08-03T03:38:46.799Z,30.8
2017-08-03T03:39:27.768Z,30.8
2017-08-03T03:40:08.747Z,28.8
2017-08-03T03:40:49.815Z,29.3
2017-08-03T03:41:30.792Z,28.8
2017-08-03T03:42:11.962Z,28.3
2017-08-03T03:42:52.847Z,28.4
2017-08-03T03:43:33.826Z,28.3
2017-08-03T03:44:14.900Z,28.4
2017-08-03T03:44:56.083Z,27.7
2017-08-03T03:45:37.158Z,27.2
2017-08-03T03:46:18.238Z,27.9
2017-08-03T03:46:59.321Z,27.6
2017-08-03T03:47:40.294Z,28.1
2017-08-03T03:48:21.276Z,27.3
2017-08-03T03:49:02.348Z,27.4
2017-08-03T03:49:43.329Z,26.9
2017-08-03T03:50:24.413Z,26.4
2017-08-03T03:51:05.488Z,26.8
2017-08-03T03:51:46.567Z,26.0
2017-08-03T03:52:27.549Z,27.5
2017-08-03T03:53:08.531Z,26.5
2017-08-03T03:53:49.613Z,26.3
2017-08-03T03:54:30.694Z,25.2
2017-08-03T03:55:11.769Z,25.5
2017-08-03T03:55:52.751Z,26.8
2017-08-03T03:56:33.727Z,26.4
2017-08-03T03:57:14.712Z,26.3
2017-08-03T03:57:55.695Z,25.2
2017-08-03T03:58:36.770Z,26.3
2017-08-03T03:59:17.961Z,27.0
2017-08-03T03:59:59.044Z,27.3
2017-08-03T04:00:40.050Z,26.4
2017-08-03T04:01:21.126Z,26.2
2017-08-03T04:02:02.110Z,26.0
2017-08-03T04:02:43.204Z,24.4
2017-08-03T04:03:24.380Z,25.6
2017-08-03T04:04:05.568Z,24.8
2017-08-03T04:04:46.450Z,25.0
2017-08-03T04:05:27.427Z,25.5
2017-08-03T04:06:08.416Z,25.1
2017-08-03T04:06:49.400Z,24.0
2017-08-03T04:07:30.486Z,24.4
2017-08-03T04:08:11.473Z,24.5
2017-08-03T04:08:52.467Z,24.1
2017-08-03T04:09:33.656Z,24.9
2017-08-03T04:10:14.644Z,24.4
2017-08-03T04:10:55.726Z,24.0
2017-08-03T04:11:36.706Z,23.9
2017-08-03T04:12:17.890Z,23.2
2017-08-03T04:12:58.871Z,23.5
2017-08-03T04:13:39.759Z,23.6
2017-08-03T04:14:20.743Z,23.6
2017-08-03T04:15:01.735Z,22.9
2017-08-03T04:15:43.156Z,22.0
2017-08-03T04:16:24.239Z,21.6
2017-08-03T04:17:05.223Z,22.7
2017-08-03T04:17:46.416Z,24.0
2017-08-03T04:18:27.511Z,24.2
2017-08-03T04:19:08.589Z,22.8
2017-08-03T04:19:49.672Z,22.4
2017-08-03T04:20:30.850Z,23.8
2017-08-03T04:21:11.940Z,24.3
2017-08-03T04:21:52.923Z,23.8
2017-08-03T04:22:33.906Z,22.4
2017-08-03T04:23:14.890Z,21.9
2017-08-03T04:23:55.771Z,22.7
2017-08-03T04:24:36.747Z,22.5
2017-08-03T04:25:17.635Z,22.2
2017-08-03T04:25:58.514Z,22.3
2017-08-03T04:26:39.500Z,21.7
2017-08-03T04:27:20.384Z,22.0
2017-08-03T04:28:01.270Z,23.0
2017-08-03T04:28:42.254Z,22.3
2017-08-03T04:29:23.344Z,22.1
2017-08-03T04:30:04.426Z,23.2
2017-08-03T04:30:45.607Z,21.7
2017-08-03T04:31:26.493Z,22.0
2017-08-03T04:32:07.375Z,22.0
2017-08-03T04:32:48.265Z,22.5
2017-08-03T04:33:29.139Z,23.3
2017-08-03T04:34:10.126Z,23.0
2017-08-03T04:34:51.015Z,24.2
2017-08-03T04:35:32.304Z,23.4
2017-08-03T04:36:13.194Z,23.6
2017-08-03T04:36:54.176Z,23.3
2017-08-03T04:37:35.461Z,23.4
2017-08-03T04:38:16.340Z,23.8
2017-08-03T04:38:57.228Z,24.2
2017-08-03T04:39:38.210Z,23.9
2017-08-03T04:40:19.190Z,24.1
2017-08-03T04:41:00.077Z,23.5
2017-08-03T04:41:40.959Z,23.6
2017-08-03T04:42:22.040Z,23.4
2017-08-03T04:43:03.421Z,22.9
2017-08-03T04:43:44.817Z,24.2
2017-08-03T04:44:25.795Z,24.0
2017-08-03T04:45:06.682Z,24.0
2017-08-03T04:45:47.661Z,24.1
2017-08-03T04:46:29.252Z,23.4
2017-08-03T04:47:10.438Z,22.8
2017-08-03T04:47:51.417Z,22.4
2017-08-03T04:48:32.404Z,23.1
2017-08-03T04:49:13.388Z,24.0
2017-08-03T04:49:54.477Z,24.9
2017-08-03T04:50:35.464Z,24.9
2017-08-03T04:51:16.438Z,24.8
2017-08-03T04:51:57.334Z,24.1
2017-08-03T04:52:38.219Z,24.5
2017-08-03T04:53:19.112Z,24.9
2017-08-03T04:54:00.105Z,24.3
2017-08-03T04:54:40.991Z,24.6
2017-08-03T04:55:21.973Z,24.7
2017-08-03T04:56:02.856Z,23.9
2017-08-03T04:56:43.957Z,22.7
2017-08-03T04:57:24.936Z,24.6
2017-08-03T04:58:05.926Z,24.2
2017-08-03T04:58:46.906Z,23.9
2017-08-03T04:59:27.895Z,23.9
2017-08-03T05:00:08.881Z,25.3
2017-08-03T05:00:49.764Z,26.9
2017-08-03T05:01:30.758Z,26.8
2017-08-03T05:02:11.845Z,27.2
2017-08-03T05:02:52.736Z,26.6
2017-08-03T05:03:33.617Z,26.6
2017-08-03T05:04:14.503Z,26.5
2017-08-03T05:04:55.796Z,25.8
2017-08-03T05:05:36.881Z,25.7
2017-08-03T05:06:17.872Z,25.6
2017-08-03T05:06:58.856Z,25.7
2017-08-03T05:07:39.947Z,25.7
2017-08-03T05:08:21.032Z,25.4
2017-08-03T05:09:02.020Z,25.7
2017-08-03T05:09:43.002Z,25.4
2017-08-03T05:10:23.892Z,26.2
2017-08-03T05:11:04.887Z,24.6
2017-08-03T05:11:45.961Z,24.1
2017-08-03T05:12:26.853Z,23.5
2017-08-03T05:13:08.044Z,24.5
2017-08-03T05:13:48.931Z,25.7
2017-08-03T05:14:29.823Z,26.4
2017-08-03T05:15:10.808Z,25.5
2017-08-03T05:15:52.002Z,24.1
2017-08-03T05:16:32.881Z,23.2
2017-08-03T05:17:13.772Z,23.9
2017-08-03T05:17:54.771Z,22.4
2017-08-03T05:18:35.664Z,21.9
2017-08-03T05:19:16.647Z,21.6
2017-08-03T05:19:57.838Z,22.0
2017-08-03T05:20:38.831Z,22.5
2017-08-03T05:21:19.708Z,23.0
2017-08-03T05:22:00.932Z,22.5
2017-08-03T05:22:41.914Z,21.3
2017-08-03T05:23:23.006Z,22.9
2017-08-03T05:24:03.898Z,22.2
2017-08-03T05:24:44.781Z,23.2
2017-08-03T05:25:25.875Z,22.5
2017-08-03T05:26:06.864Z,22.1
2017-08-03T05:26:47.952Z,22.7
2017-08-03T05:27:28.846Z,24.4
2017-08-03T05:28:09.938Z,22.8
2017-08-03T05:28:51.033Z,22.8
2017-08-03T05:29:31.924Z,21.6
2017-08-03T05:30:13.016Z,22.0
2017-08-03T05:30:54.107Z,22.0
2017-08-03T05:31:35.204Z,22.2
2017-08-03T05:32:16.305Z,22.8
2017-08-03T05:32:57.389Z,22.3
2017-08-03T05:33:38.574Z,23.0
2017-08-03T05:34:19.862Z,22.0
2017-08-03T05:35:00.855Z,21.7
2017-08-03T05:35:42.248Z,22.7
2017-08-03T05:36:23.533Z,22.1
2017-08-03T05:37:04.651Z,22.2
2017-08-03T05:37:45.735Z,21.4
2017-08-03T05:38:26.827Z,21.8
2017-08-03T05:39:07.919Z,21.0
2017-08-03T05:39:48.907Z,19.7
2017-08-03T05:40:30.092Z,18.6
2017-08-03T05:41:11.184Z,18.5
2017-08-03T05:41:52.274Z,18.4
2017-08-03T05:42:33.661Z,18.9
2017-08-03T05:43:14.649Z,18.4
2017-08-03T05:43:55.741Z,19.1
2017-08-03T05:44:36.936Z,18.8
2017-08-03T05:45:18.122Z,19.6
2017-08-03T05:45:59.319Z,20.1
2017-08-03T05:46:40.403Z,21.4
2017-08-03T05:47:21.593Z,19.4
2017-08-03T05:48:02.685Z,19.1
2017-08-03T05:48:43.824Z,18.2
2017-08-03T05:49:24.921Z,18.7
2017-08-03T05:50:05.908Z,20.1
2017-08-03T05:50:47.105Z,19.1
2017-08-03T05:51:28.096Z,18.9
2017-08-03T05:52:09.188Z,19.0
2017-08-03T05:52:50.274Z,18.7
2017-08-03T05:53:31.261Z,17.4
2017-08-03T05:54:12.264Z,18.3
2017-08-03T05:54:53.254Z,20.2
2017-08-03T05:55:34.444Z,19.3
2017-08-03T05:56:15.435Z,17.6
2017-08-03T05:56:56.725Z,17.0
2017-08-03T05:57:37.817Z,17.1
2017-08-03T05:58:19.005Z,17.0
2017-08-03T05:58:59.996Z,17.6
2017-08-03T05:59:40.996Z,17.8
2017-08-03T06:00:22.086Z,17.8
2017-08-03T06:01:03.610Z,18.3
2017-08-03T06:01:44.717Z,17.8
2017-08-03T06:02:25.905Z,18.1
2017-08-03T06:03:06.996Z,17.7
2017-08-03T06:03:48.090Z,17.5
2017-08-03T06:04:29.184Z,18.1
2017-08-03T06:05:10.271Z,18.2
2017-08-03T06:05:51.453Z,17.9
2017-08-03T06:06:32.538Z,18.5
2017-08-03T06:07:13.627Z,18.5
2017-08-03T06:07:54.722Z,18.4
2017-08-03T06:08:35.619Z,18.6
2017-08-03T06:09:16.709Z,18.3
2017-08-03T06:09:57.798Z,18.7
2017-08-03T06:10:38.885Z,18.8
2017-08-03T06:11:20.091Z,19.1
2017-08-03T06:12:01.082Z,18.2
2017-08-03T06:12:42.070Z,18.1
2017-08-03T06:13:24.168Z,17.6
2017-08-03T06:14:05.433Z,18.8
2017-08-03T06:14:46.427Z,18.8
2017-08-03T06:15:27.613Z,17.7
2017-08-03T06:16:08.607Z,17.5
2017-08-03T06:16:49.695Z,18.3
2017-08-03T06:17:30.785Z,19.0
2017-08-03T06:18:11.775Z,18.7
2017-08-03T06:18:52.766Z,18.1
2017-08-03T06:19:34.061Z,18.0
2017-08-03T06:20:15.052Z,18.5
2017-08-03T06:20:56.244Z,17.8
2017-08-03T06:21:37.233Z,17.4
2017-08-03T06:22:18.224Z,18.2
2017-08-03T06:22:59.223Z,18.6
2017-08-03T06:23:40.402Z,17.9
2017-08-03T06:24:21.501Z,17.5
2017-08-03T06:25:02.714Z,18.7
2017-08-03T06:25:43.888Z,19.3
2017-08-03T06:26:24.978Z,19.7
2017-08-03T06:27:06.063Z,18.8
2017-08-03T06:27:47.162Z,17.9
2017-08-03T06:28:28.247Z,17.8
2017-08-03T06:29:09.230Z,17.5
2017-08-03T06:29:50.419Z,18.7
2017-08-03T06:30:31.512Z,17.7
2017-08-03T06:31:12.604Z,17.6
2017-08-03T06:31:53.689Z,18.8
2017-08-03T06:32:34.890Z,19.1
2017-08-03T06:33:15.978Z,17.7
2017-08-03T06:33:56.973Z,17.5
2017-08-03T06:34:38.265Z,18.2
2017-08-03T06:35:19.362Z,17.5
2017-08-03T06:36:00.451Z,18.0
2017-08-03T06:36:41.431Z,18.1
2017-08-03T06:37:22.429Z,17.4
2017-08-03T06:38:03.408Z,17.0
2017-08-03T06:38:44.504Z,17.8
2017-08-03T06:39:25.593Z,17.4
2017-08-03T06:40:06.691Z,17.5
2017-08-03T06:40:47.792Z,18.5
2017-08-03T06:41:28.885Z,18.2
2017-08-03T06:42:09.980Z,17.7
2017-08-03T06:42:51.170Z,17.8
2017-08-03T06:43:32.164Z,17.6
2017-08-03T06:44:13.551Z,18.8
2017-08-03T06:44:54.642Z,17.9
2017-08-03T06:45:35.641Z,18.0
2017-08-03T06:46:16.536Z,17.8
2017-08-03T06:46:57.520Z,17.4
2017-08-03T06:47:38.611Z,18.0
2017-08-03T06:48:19.796Z,17.3
2017-08-03T06:49:00.885Z,17.8
2017-08-03T06:49:41.982Z,17.1
2017-08-03T06:50:22.975Z,17.3
2017-08-03T06:51:04.565Z,18.6
2017-08-03T06:51:45.558Z,17.9
2017-08-03T06:52:26.545Z,17.7
2017-08-03T06:53:07.637Z,18.4
2017-08-03T06:53:48.732Z,18.6
2017-08-03T06:54:29.622Z,17.9
2017-08-03T06:55:10.619Z,18.2
2017-08-03T06:55:51.712Z,18.5
2017-08-03T06:56:32.808Z,18.7
2017-08-03T06:57:13.893Z,19.1
2017-08-03T06:57:55.093Z,17.9
2017-08-03T06:58:36.175Z,18.4
2017-08-03T06:59:17.272Z,17.9
2017-08-03T06:59:58.261Z,17.7
2017-08-03T07:00:39.352Z,17.7
2017-08-03T07:01:20.350Z,17.3
2017-08-03T07:02:01.336Z,17.0
2017-08-03T07:02:42.429Z,17.1
2017-08-03T07:03:23.626Z,16.6
2017-08-03T07:04:04.726Z,16.1
2017-08-03T07:04:45.809Z,15.0
2017-08-03T07:05:26.899Z,15.0
2017-08-03T07:06:08.097Z,16.1
2017-08-03T07:06:49.084Z,16.2
2017-08-03T07:07:30.078Z,16.2
2017-08-03T07:08:11.065Z,16.1
2017-08-03T07:08:52.158Z,15.8
2017-08-03T07:09:33.154Z,15.1
2017-08-03T07:10:14.349Z,14.7
2017-08-03T07:10:55.444Z,14.9
2017-08-03T07:11:36.529Z,15.2
2017-08-03T07:12:17.624Z,13.7
2017-08-03T07:12:58.616Z,14.1
2017-08-03T07:13:39.609Z,14.5
2017-08-03T07:14:20.809Z,14.1
2017-08-03T07:15:01.996Z,14.5
2017-08-03T07:15:42.991Z,13.1
2017-08-03T07:16:24.181Z,13.0
2017-08-03T07:17:05.176Z,13.4
2017-08-03T07:17:46.277Z,12.7
2017-08-03T07:18:27.374Z,13.4
2017-08-03T07:19:08.366Z,13.8
2017-08-03T07:19:49.661Z,13.1
2017-08-03T07:20:30.653Z,12.9
2017-08-03T07:21:11.741Z,13.1
2017-08-03T07:21:52.736Z,12.8
2017-08-03T07:22:33.827Z,12.6
2017-08-03T07:23:14.823Z,12.0
2017-08-03T07:23:55.918Z,12.2
2017-08-03T07:24:37.037Z,11.5
2017-08-03T07:25:18.033Z,11.9
2017-08-03T07:25:59.024Z,11.3
2017-08-03T07:26:40.121Z,11.3
2017-08-03T07:27:21.322Z,10.3
2017-08-03T07:28:02.423Z,10.6
2017-08-03T07:28:43.623Z,10.6
2017-08-03T07:29:24.614Z,10.7
2017-08-03T07:30:05.716Z,10.8
2017-08-03T07:30:46.713Z,10.2
2017-08-03T07:31:28.013Z,10.0
2017-08-03T07:32:09.110Z,8.8
2017-08-03T07:32:50.110Z,9.5
2017-08-03T07:33:31.203Z,9.3
2017-08-03T07:34:12.294Z,9.3
2017-08-03T07:34:53.397Z,9.5
2017-08-03T07:35:34.384Z,9.4
2017-08-03T07:36:15.387Z,9.5
2017-08-03T07:36:56.385Z,9.7
2017-08-03T07:37:37.581Z,9.4
2017-08-03T07:38:18.582Z,8.4
2017-08-03T07:38:59.688Z,8.0
2017-08-03T07:39:40.689Z,7.8
2017-08-03T07:40:21.767Z,8.1
2017-08-03T07:41:02.768Z,7.8
2017-08-03T07:41:43.761Z,7.6
2017-08-03T07:42:24.755Z,8.2
2017-08-03T07:43:05.754Z,7.9
2017-08-03T07:43:46.742Z,8.5
2017-08-03T07:44:27.849Z,8.1
2017-08-03T07:45:08.828Z,7.8
2017-08-03T07:45:49.830Z,8.1
2017-08-03T07:46:31.125Z,7.8
2017-08-03T07:47:12.117Z,7.6
2017-08-03T07:47:53.221Z,7.2
2017-08-03T07:48:34.218Z,7.2
2017-08-03T07:49:15.314Z,7.1
2017-08-03T07:49:56.505Z,7.2
2017-08-03T07:50:37.507Z,6.9
2017-08-03T07:51:18.499Z,7.1
2017-08-03T07:51:59.692Z,6.7
2017-08-03T07:52:40.787Z,6.7
2017-08-03T07:53:21.782Z,6.7
2017-08-03T07:54:02.779Z,6.4
2017-08-03T07:54:43.777Z,7.0
2017-08-03T07:55:24.777Z,6.8
2017-08-03T07:56:05.770Z,6.4
2017-08-03T07:56:46.770Z,6.6
2017-08-03T07:57:27.976Z,6.2
2017-08-03T07:58:09.072Z,6.3
2017-08-03T07:58:50.367Z,5.7
2017-08-03T07:59:31.755Z,5.7
2017-08-03T08:00:12.855Z,6.1
2017-08-03T08:00:53.852Z,6.1
2017-08-03T08:01:34.968Z,6.0
2017-08-03T08:02:16.070Z,5.9
2017-08-03T08:02:57.065Z,5.9
2017-08-03T08:03:38.062Z,5.4
2017-08-03T08:04:19.359Z,6.0
2017-08-03T08:05:00.665Z,5.7
2017-08-03T08:05:41.762Z,5.4
2017-08-03T08:06:22.861Z,5.4
2017-08-03T08:07:03.875Z,5.2
2017-08-03T08:07:44.863Z,5.1
2017-08-03T08:08:25.875Z,5.3
2017-08-03T08:09:06.975Z,5.2
2017-08-03T08:09:48.080Z,5.0
2017-08-03T08:10:29.083Z,5.1
2017-08-03T08:11:10.081Z,4.9
2017-08-03T08:11:51.282Z,4.8
2017-08-03T08:12:32.385Z,4.7
2017-08-03T08:13:13.481Z,4.8
2017-08-03T08:13:54.479Z,4.3
2017-08-03T08:14:35.479Z,4.3
2017-08-03T08:15:16.478Z,4.8
2017-08-03T08:15:57.479Z,4.8
2017-08-03T08:16:38.576Z,4.3
2017-08-03T08:17:19.666Z,4.9
2017-08-03T08:18:00.770Z,4.6
2017-08-03T08:18:41.766Z,4.6
2017-08-03T08:19:22.865Z,4.4
2017-08-03T08:20:03.966Z,4.3
2017-08-03T08:20:45.064Z,4.1
2017-08-03T08:21:26.167Z,4.5
2017-08-03T08:22:07.162Z,4.6
2017-08-03T08:22:48.258Z,4.7
2017-08-03T08:23:29.556Z,5.0
2017-08-03T08:24:10.659Z,4.5
2017-08-03T08:24:51.668Z,4.2
2017-08-03T08:25:32.667Z,4.4
2017-08-03T08:26:13.564Z,4.4
2017-08-03T08:26:54.562Z,4.3
2017-08-03T08:27:35.760Z,4.5
2017-08-03T08:28:16.748Z,4.6
2017-08-03T08:28:57.648Z,4.3
2017-08-03T08:29:38.745Z,4.2
2017-08-03T08:30:19.747Z,4.3
2017-08-03T08:31:01.248Z,4.5
2017-08-03T08:31:42.146Z,4.8
2017-08-03T08:32:23.242Z,4.7
2017-08-03T08:33:04.354Z,4.7
2017-08-03T08:33:45.350Z,4.5
2017-08-03T08:34:26.544Z,4.6
2017-08-03T08:35:07.543Z,4.6
2017-08-03T08:35:48.539Z,4.8
2017-08-03T08:36:29.738Z,5.0
2017-08-03T08:37:10.841Z,4.6
2017-08-03T08:37:51.930Z,5.1
2017-08-03T08:38:33.031Z,5.1
2017-08-03T08:39:14.119Z,5.2
2017-08-03T08:39:55.117Z,5.2
2017-08-03T08:40:36.219Z,5.2
2017-08-03T08:41:17.220Z,5.1
2017-08-03T08:41:58.218Z,5.0
2017-08-03T08:42:39.419Z,4.9
2017-08-03T08:43:20.510Z,5.4
2017-08-03T08:44:01.512Z,5.4
2017-08-03T08:44:42.495Z,5.0
2017-08-03T08:45:23.593Z,5.6
2017-08-03T08:46:04.692Z,5.4
2017-08-03T08:46:45.789Z,5.2
2017-08-03T08:47:26.781Z,5.0
2017-08-03T08:48:07.880Z,5.4
2017-08-03T08:48:48.868Z,5.7
2017-08-03T08:49:29.863Z,5.3
2017-08-03T08:50:10.957Z,5.5
2017-08-03T08:50:52.163Z,5.4
2017-08-03T08:51:33.269Z,5.4
2017-08-03T08:52:14.457Z,5.3
2017-08-03T08:52:55.453Z,5.6
2017-08-03T08:53:36.452Z,5.2
2017-08-03T08:54:17.455Z,5.2
2017-08-03T08:54:58.646Z,5.1
2017-08-03T08:55:39.639Z,5.5
2017-08-03T08:56:20.637Z,5.3
2017-08-03T08:57:01.727Z,5.1
2017-08-03T08:57:42.819Z,5.4
2017-08-03T08:58:23.913Z,5.3
2017-08-03T08:59:05.322Z,5.5
2017-08-03T08:59:46.419Z,5.6
2017-08-03T09:00:27.510Z,5.4
2017-08-03T09:01:08.604Z,5.5
2017-08-03T09:01:49.687Z,5.3
2017-08-03T09:02:30.889Z,5.6
2017-08-03T09:03:11.984Z,6.0
2017-08-03T09:03:53.183Z,6.3
2017-08-03T09:04:34.287Z,6.1
2017-08-03T09:05:15.380Z,6.0
2017-08-03T09:05:56.382Z,5.8
2017-08-03T09:06:37.469Z,6.4
2017-08-03T09:07:18.570Z,6.1
2017-08-03T09:07:59.663Z,6.0
2017-08-03T09:08:40.658Z,6.3
2017-08-03T09:09:21.657Z,5.9
2017-08-03T09:10:02.973Z,6.0